Time;durP1;ratioP1;P1;durP2;ratioP2;P2;SDS_P1;SDS_P2;PMS_P1;PMS_P2;Temp;Humidity;BMP_temperature;BMP_pressure;BME280_temperature;BME280_humidity;BME280_pressure;Samples;Min_cycle;Max_cycle;Signal;HPM_P1;HPM_P2
2022/01/08 00:02:03;;;;;;;15.45;4.85;;;;;;;3.22;100.00;99898.56;20955860;28;20455;-70
2022/01/08 00:12:05;;;;;;;9.40;2.92;;;;;;;3.44;98.87;99865.00;20952091;28;20106;-70
2022/01/08 00:22:08;;;;;;;20.80;8.20;;;;;;;3.37;100.00;99863.28;20954412;28;20040;-71
2022/01/08 00:32:10;;;;;;;8.93;3.03;;;;;;;3.41;100.00;99834.84;20952347;28;20059;-72
2022/01/08 00:42:12;;;;;;;9.57;3.63;;;;;;;3.54;98.74;99815.88;20951356;28;20045;-70
2022/01/08 00:52:13;;;;;;;7.65;2.88;;;;;;;3.59;100.00;99800.34;20951340;28;20044;-71
2022/01/08 01:02:15;;;;;;;8.07;2.20;;;;;;;3.57;100.00;99763.25;20948488;28;20053;-71
2022/01/08 01:12:17;;;;;;;4.93;1.52;;;;;;;3.49;100.00;99726.16;20948565;28;20402;-71
2022/01/08 01:43:23;;;;;;;9.45;3.00;;;;;;;3.69;100.00;99706.34;20946877;28;20228;-71
2022/01/08 01:53:24;;;;;;;11.23;3.65;;;;;;;3.62;100.00;99685.63;20945151;28;20140;-73
2022/01/08 02:03:26;;;;;;;11.57;3.35;;;;;;;3.59;100.00;99679.59;20942960;28;20555;-72
2022/01/08 02:13:28;;;;;;;13.30;5.22;;;;;;;3.49;100.00;99651.94;20944679;28;20079;-73
2022/01/08 02:23:30;;;;;;;9.68;3.50;;;;;;;3.59;100.00;99650.22;20941993;28;20498;-72
2022/01/08 02:33:33;;;;;;;14.77;4.32;;;;;;;3.44;100.00;99632.97;20941778;28;20044;-72
2022/01/08 02:43:40;;;;;;;6.25;1.98;;;;;;;3.30;100.00;99630.38;20943161;28;20075;-73
2022/01/08 02:53:42;;;;;;;3.35;1.30;;;;;;;3.25;100.00;99619.16;20939350;28;20051;-72
2022/01/08 03:03:43;;;;;;;3.67;1.38;;;;;;;3.22;100.00;99621.75;20940594;28;20467;-72
2022/01/08 03:13:45;;;;;;;3.72;1.35;;;;;;;3.17;100.00;99623.47;20940993;28;20052;-71
2022/01/08 03:23:59;;;;;;;3.70;1.80;;;;;;;3.14;100.00;99627.78;20949439;28;20045;-72
2022/01/08 03:34:01;;;;;;;3.60;1.40;;;;;;;3.13;100.00;99629.50;20956049;28;20527;-73
2022/01/08 03:44:03;;;;;;;5.22;1.60;;;;;;;3.14;100.00;99643.28;20954271;28;20044;-72
2022/01/08 03:54:04;;;;;;;3.85;1.48;;;;;;;3.10;100.00;99657.94;20955973;28;20131;-72
2022/01/08 04:04:06;;;;;;;4.80;1.60;;;;;;;3.11;100.00;99669.13;20947059;28;20049;-73
2022/01/08 04:14:08;;;;;;;4.07;1.30;;;;;;;3.04;100.00;99694.13;20954577;28;20059;-72
2022/01/08 04:24:10;;;;;;;4.07;1.50;;;;;;;3.16;100.00;99709.66;20948878;28;20395;-71
2022/01/08 04:34:12;;;;;;;5.18;1.52;;;;;;;2.96;100.00;99753.56;20951805;28;20110;-73
2022/01/08 04:44:13;;;;;;;3.75;1.20;;;;;;;2.97;100.00;99796.69;20952374;28;20106;-72
2022/01/08 04:54:15;;;;;;;0.50;0.30;;;;;;;2.93;100.00;99858.72;20949809;28;20049;-73
2022/01/08 05:04:17;;;;;;;0.60;0.20;;;;;;;2.77;100.00;99899.94;20947602;28;20153;-72
2022/01/08 05:14:19;;;;;;;0.38;0.20;;;;;;;2.57;100.00;99935.13;20949825;28;20143;-72
2022/01/08 05:24:21;;;;;;;1.73;0.30;;;;;;;2.42;100.00;99971.16;20946068;28;20045;-72
2022/01/08 05:34:22;;;;;;;0.60;0.40;;;;;;;2.30;100.00;99990.84;20946282;28;20052;-72
2022/01/08 05:44:24;;;;;;;3.70;0.98;;;;;;;2.36;98.25;100041.72;20945149;28;20110;-71
2022/01/08 05:54:26;;;;;;;2.45;0.88;;;;;;;2.37;98.05;100058.06;20943944;28;20110;-72
2022/01/08 06:04:27;;;;;;;1.77;0.90;;;;;;;2.22;98.96;100092.34;20946271;28;20124;-72
2022/01/08 06:14:29;;;;;;;4.28;1.10;;;;;;;2.19;98.33;100115.53;20943326;28;20106;-71
2022/01/08 06:24:30;;;;;;;3.22;0.90;;;;;;;2.19;97.89;100144.81;20942709;28;20456;-72
2022/01/08 06:34:32;;;;;;;3.58;1.10;;;;;;;2.10;98.79;100173.09;20940565;28;20053;-72
2022/01/08 06:44:33;;;;;;;2.67;1.00;;;;;;;2.09;99.10;100189.44;20944003;28;20447;-72
2022/01/08 06:54:35;;;;;;;2.78;1.00;;;;;;;2.03;99.98;100210.00;20939115;28;20049;-71
2022/01/08 07:04:37;;;;;;;3.28;1.00;;;;;;;2.00;99.18;100225.44;20942556;28;20071;-72
2022/01/08 07:14:39;;;;;;;3.67;1.13;;;;;;;1.97;99.89;100256.41;20939117;28;20139;-71
2022/01/08 07:24:42;;;;;;;4.03;1.10;;;;;;;1.90;100.00;100293.25;20941602;28;20055;-74
2022/01/08 07:34:44;;;;;;;2.78;1.08;;;;;;;2.11;100.00;100332.38;20937874;28;20060;-72
2022/01/08 07:44:45;;;;;;;2.85;1.40;;;;;;;2.24;99.85;100361.84;20938111;28;20041;-72
2022/01/08 07:54:47;;;;;;;5.07;1.30;;;;;;;2.36;100.00;100376.72;20938208;28;20066;-74
2022/01/08 08:04:48;;;;;;;3.50;1.35;;;;;;;2.39;100.00;100384.50;20940464;28;20444;-73
2022/01/08 08:14:50;;;;;;;6.63;2.55;;;;;;;2.43;99.35;100391.47;20940859;28;20060;-73
2022/01/08 08:24:52;;;;;;;6.00;1.90;;;;;;;2.62;96.13;100395.22;20958530;28;20390;-74
2022/01/08 08:34:53;;;;;;;8.75;2.45;;;;;;;2.51;97.20;100415.72;20945522;28;20505;-76
2022/01/08 08:44:54;;;;;;;7.13;3.08;;;;;;;2.64;94.43;100443.53;20943779;28;20107;-73
2022/01/08 08:54:56;;;;;;;6.63;2.58;;;;;;;2.69;94.73;100441.91;20945372;28;20086;-73
2022/01/08 09:04:58;;;;;;;9.73;3.42;;;;;;;2.80;94.26;100430.00;20947990;28;20062;-73
2022/01/08 09:14:59;;;;;;;9.98;3.10;;;;;;;2.79;91.47;100442.91;20948214;28;20060;-69
2022/01/08 09:25:01;;;;;;;6.07;2.85;;;;;;;2.83;92.27;100455.91;20942583;28;20111;-70
2022/01/08 09:35:03;;;;;;;10.27;3.22;;;;;;;2.75;92.17;100467.84;20941113;28;20048;-70
2022/01/08 09:45:05;;;;;;;10.80;4.13;;;;;;;2.82;90.77;100476.56;20938184;28;20484;-71
2022/01/08 09:55:08;;;;;;;9.38;2.72;;;;;;;3.13;91.19;100458.97;20940338;28;20059;-70
2022/01/08 10:05:11;;;;;;;8.85;3.30;;;;;;;3.43;90.24;100453.38;20936318;28;20086;-70
2022/01/08 10:25:35;;;;;;;7.80;2.60;;;;;;;3.50;91.11;100427.59;20945143;28;20098;-71
2022/01/08 10:35:49;;;;;;;12.60;2.78;;;;;;;3.59;90.12;100421.66;20933610;28;20053;-70
2022/01/08 10:45:52;;;;;;;10.45;2.38;;;;;;;3.77;88.53;100413.25;20934114;28;20482;-70
2022/01/08 10:55:54;;;;;;;12.05;2.92;;;;;;;3.70;87.46;100407.13;20933055;28;20052;-70
2022/01/08 11:06:02;;;;;;;8.02;2.53;;;;;;;3.86;88.17;100393.50;20934441;28;20056;-69
2022/01/08 11:16:04;;;;;;;11.45;3.17;;;;;;;4.03;88.42;100370.38;20934548;28;20061;-71
2022/01/08 11:26:10;;;;;;;23.42;10.70;;;;;;;3.86;88.57;100362.41;20935464;28;20060;-69
2022/01/08 11:36:14;;;;;;;10.75;4.68;;;;;;;3.63;90.19;100348.34;20932626;28;20052;-70
2022/01/08 11:46:16;;;;;;;8.27;3.10;;;;;;;3.76;88.14;100323.47;20942802;28;20182;-72
2022/01/08 11:56:33;;;;;;;7.90;2.72;;;;;;;4.20;86.77;100295.38;20951621;28;20119;-69
2022/01/08 12:06:39;;;;;;;5.55;2.65;;;;;;;4.32;85.50;100289.44;20945261;28;20060;-70
2022/01/08 12:16:48;;;;;;;4.82;1.73;;;;;;;4.27;82.33;100250.53;20935583;28;20555;-71
2022/01/08 12:26:49;;;;;;;5.72;2.15;;;;;;;4.36;83.91;100224.69;20945325;28;20371;-71
2022/01/08 12:37:02;;;;;;;9.43;2.67;;;;;;;4.45;82.38;100215.22;20945170;28;20044;-70
2022/01/08 12:47:04;;;;;;;6.18;2.28;;;;;;;4.22;89.54;100203.00;20943462;28;20075;-71
2022/01/08 12:57:06;;;;;;;8.88;3.45;;;;;;;3.98;92.21;100175.19;20942149;28;20075;-71
2022/01/08 13:07:07;;;;;;;9.20;3.50;;;;;;;4.04;91.74;100148.44;20943378;28;20154;-71
2022/01/08 13:17:12;;;;;;;9.00;3.00;;;;;;;4.22;92.20;100135.63;20943460;28;20098;-71
2022/01/08 13:27:20;;;;;;;9.52;2.80;;;;;;;4.53;88.75;100092.56;20941400;28;20056;-71
2022/01/08 13:37:24;;;;;;;6.72;2.70;;;;;;;4.69;82.53;100077.91;20938409;28;20091;-71
2022/01/08 13:47:32;;;;;;;7.53;2.17;;;;;;;4.75;78.48;100046.81;20941386;28;20052;-72
2022/01/08 13:57:34;;;;;;;7.10;2.20;;;;;;;4.87;77.13;100031.25;20937738;28;20107;-71
2022/01/08 14:07:38;;;;;;;4.35;1.85;;;;;;;4.72;77.91;100013.09;20938290;28;20074;-71
2022/01/08 14:17:40;;;;;;;6.93;2.70;;;;;;;4.72;81.17;99978.50;20937457;28;20048;-71
2022/01/08 14:27:42;;;;;;;7.90;3.28;;;;;;;4.66;82.71;99948.25;20936724;28;20055;-69
2022/01/08 14:37:45;;;;;;;6.45;2.70;;;;;;;4.52;81.83;99914.53;20935396;28;20048;-70
2022/01/08 14:47:46;;;;;;;5.63;1.85;;;;;;;4.56;80.79;99889.47;20932904;28;20060;-70
2022/01/08 14:57:48;;;;;;;4.68;1.50;;;;;;;4.49;77.01;99867.84;20931990;28;20136;-69
2022/01/08 15:07:50;;;;;;;4.03;1.45;;;;;;;4.33;76.05;99840.22;20931395;28;20048;-69
2022/01/08 15:17:53;;;;;;;4.40;1.50;;;;;;;4.44;76.82;99811.69;20947956;28;20056;-70
2022/01/08 15:28:04;;;;;;;6.32;1.80;;;;;;;4.26;77.10;99786.63;20960160;28;20049;-68
2022/01/08 15:38:06;;;;;;;4.18;1.55;;;;;;;4.21;76.23;99763.31;20958273;28;20079;-68
2022/01/08 15:48:07;;;;;;;4.82;1.70;;;;;;;4.09;77.05;99769.38;20958762;28;20131;-69
2022/01/08 15:58:09;;;;;;;5.85;2.00;;;;;;;4.00;77.26;99734.84;20959665;28;20051;-69
2022/01/08 16:08:11;;;;;;;5.18;2.05;;;;;;;3.85;78.09;99709.81;20957631;28;20052;-69
2022/01/08 16:18:12;;;;;;;347.27;41.97;;;;;;;4.09;80.74;99711.53;20952636;28;20056;-69
2022/01/08 16:28:18;;;;;;;6.70;2.38;;;;;;;4.00;79.47;99685.63;20953023;28;20144;-69
2022/01/08 16:38:20;;;;;;;6.45;2.03;;;;;;;4.00;80.09;99670.09;20946515;28;20044;-69
2022/01/08 16:48:21;;;;;;;5.80;1.55;;;;;;;4.01;81.74;99656.25;20942394;28;20061;-69
2022/01/08 16:58:23;;;;;;;5.78;1.70;;;;;;;3.76;89.69;99634.72;20944403;28;20087;-69
2022/01/08 17:08:24;;;;;;;8.57;3.10;;;;;;;3.68;89.36;99614.00;20941934;28;20101;-69
2022/01/08 17:18:29;;;;;;;5.65;2.20;;;;;;;3.64;90.89;99576.06;20943218;28;20140;-69
2022/01/08 17:28:30;;;;;;;6.22;2.03;;;;;;;3.66;91.53;99540.66;20939062;28;20572;-69
2022/01/08 17:38:32;;;;;;;3.42;1.60;;;;;;;3.70;92.36;99513.91;20939267;28;20048;-70
2022/01/08 17:48:33;;;;;;;5.35;2.10;;;;;;;3.70;91.48;99485.44;20938767;28;20044;-71
2022/01/08 17:58:35;;;;;;;7.25;2.70;;;;;;;3.77;91.23;99452.59;20935565;28;20508;-70
2022/01/08 18:08:36;;;;;;;4.88;2.00;;;;;;;3.75;89.76;99420.69;20937769;28;20044;-70
2022/01/08 18:18:38;;;;;;;7.00;2.40;;;;;;;3.50;94.04;99399.22;20939601;28;20040;-68
2022/01/08 18:28:39;;;;;;;6.68;2.00;;;;;;;3.42;95.67;99364.75;20935750;28;20087;-71
2022/01/08 18:38:41;;;;;;;9.70;3.28;;;;;;;3.39;97.52;99320.75;20932059;28;20110;-70
2022/01/08 18:48:43;;;;;;;7.50;2.30;;;;;;;3.39;97.50;99275.03;20935488;28;20057;-72
2022/01/08 18:58:45;;;;;;;5.68;2.33;;;;;;;3.41;97.82;99239.69;20934393;28;20094;-72
2022/01/08 19:08:47;;;;;;;10.10;3.60;;;;;;;3.43;98.51;99208.63;20933072;28;20050;-71
2022/01/08 19:18:49;;;;;;;8.70;3.00;;;;;;;3.38;97.81;99166.41;20934988;28;20053;-72
2022/01/08 19:28:56;;;;;;;5.93;2.65;;;;;;;3.49;96.76;99120.59;20931882;28;20434;-71
2022/01/08 19:38:58;;;;;;;5.90;2.40;;;;;;;3.50;96.90;99084.38;20931296;28;20084;-71
2022/01/08 19:48:59;;;;;;;4.30;1.48;;;;;;;3.64;95.66;99067.84;20931715;28;20053;-71
2022/01/08 19:59:02;;;;;;;5.22;1.73;;;;;;;3.71;96.79;99035.88;20930138;28;20064;-71
2022/01/08 20:09:05;;;;;;;6.15;2.33;;;;;;;3.70;97.51;98985.84;20944156;28;20059;-71
2022/01/08 20:19:06;;;;;;;4.25;1.13;;;;;;;3.78;97.10;98952.94;20947981;28;20052;-71
2022/01/08 20:29:08;;;;;;;5.53;1.88;;;;;;;4.01;96.54;98923.31;20950092;28;20102;-69
2022/01/08 20:39:10;;;;;;;5.95;2.03;;;;;;;4.00;98.16;98890.53;20944076;28;20044;-70
2022/01/08 20:49:12;;;;;;;6.00;2.63;;;;;;;4.06;99.75;98854.19;20941534;28;20493;-72
2022/01/08 20:59:14;;;;;;;6.13;2.85;;;;;;;4.06;99.24;98805.84;20942462;28;20090;-73
2022/01/08 21:09:17;;;;;;;8.15;3.13;;;;;;;4.04;100.00;98760.13;20941842;28;20055;-72
2022/01/08 21:19:18;;;;;;;7.45;2.72;;;;;;;4.04;100.00;98708.34;20941387;28;20502;-73
2022/01/08 21:29:21;;;;;;;8.93;2.80;;;;;;;4.05;100.00;98673.78;20945994;28;20463;-72
2022/01/08 21:39:23;;;;;;;5.35;2.00;;;;;;;4.20;100.00;98642.44;20937061;28;20053;-73
2022/01/08 21:49:26;;;;;;;8.30;1.70;;;;;;;4.32;100.00;98612.88;20941205;28;20045;-74
2022/01/08 21:59:27;;;;;;;7.25;1.85;;;;;;;4.46;100.00;98576.31;20960407;28;20075;-73
2022/01/08 22:09:29;;;;;;;4.10;1.10;;;;;;;4.62;100.00;98554.38;20984140;28;20048;-74
2022/01/08 22:19:30;;;;;;;3.05;0.90;;;;;;;4.98;100.00;98511.19;20936807;28;20464;-74
2022/01/08 22:29:33;;;;;;;2.92;1.25;;;;;;;5.06;100.00;98496.31;20934964;28;20109;-74
2022/01/08 22:39:34;;;;;;;3.13;0.80;;;;;;;5.07;100.00;98471.22;20938284;28;20052;-73
2022/01/08 22:49:36;;;;;;;4.25;0.93;;;;;;;5.04;100.00;98435.00;20934727;28;20052;-72
2022/01/08 22:59:38;;;;;;;2.92;0.70;;;;;;;4.93;100.00;98405.88;20933071;28;20107;-70
2022/01/08 23:09:40;;;;;;;2.17;0.68;;;;;;;4.97;100.00;98378.97;20961169;23;20130;-74
2022/01/08 23:19:48;;;;;;;2.92;0.70;;;;;;;5.00;100.00;98345.19;20936827;28;20053;-74
2022/01/08 23:29:49;;;;;;;2.78;0.60;;;;;;;4.99;100.00;98323.59;20935501;28;20057;-72
2022/01/08 23:39:51;;;;;;;2.53;0.68;;;;;;;4.96;100.00;98302.09;20945673;28;20409;-73
2022/01/08 23:50:01;;;;;;;2.83;0.63;;;;;;;5.01;100.00;98269.09;20955778;28;20056;-73
